createdAt,value
2019-03-21T00:01:59.825Z,56.47
2019-03-21T00:04:26.261Z,56.36
2019-03-21T00:06:52.463Z,56.31
2019-03-21T00:09:18.703Z,56.02
2019-03-21T00:12:06.188Z,56.19
2019-03-21T00:14:54.259Z,56.40
2019-03-21T00:17:30.065Z,56.59
2019-03-21T00:19:56.207Z,56.57
2019-03-21T00:22:22.413Z,56.64
2019-03-21T00:24:48.526Z,56.28
2019-03-21T00:27:14.753Z,56.64
2019-03-21T00:29:40.961Z,56.00
2019-03-21T00:32:08.383Z,55.83
2019-03-21T00:34:34.567Z,55.65
2019-03-21T00:37:00.737Z,55.70
2019-03-21T00:39:32.720Z,55.69
2019-03-21T00:41:55.993Z,55.38
2019-03-21T00:44:22.189Z,55.08
2019-03-21T00:46:48.402Z,55.19
2019-03-21T00:49:14.803Z,55.10
2019-03-21T00:51:41.050Z,55.34
2019-03-21T00:54:07.170Z,55.05
2019-03-21T00:56:33.508Z,54.96
2019-03-21T00:58:59.621Z,55.18
2019-03-21T01:01:26.043Z,55.02
2019-03-21T01:03:53.259Z,54.90
2019-03-21T01:06:19.446Z,54.60
2019-03-21T01:08:45.600Z,54.65
2019-03-21T01:11:11.871Z,54.59
2019-03-21T01:13:39.280Z,54.49
2019-03-21T01:16:05.657Z,54.56
2019-03-21T01:18:34.398Z,54.41
2019-03-21T01:21:00.741Z,54.35
2019-03-21T01:23:27.940Z,54.33
2019-03-21T01:26:00.662Z,54.38
2019-03-21T01:28:26.853Z,54.59
2019-03-21T01:30:53.079Z,54.59
2019-03-21T01:33:19.187Z,54.17
2019-03-21T01:35:45.435Z,54.27
2019-03-21T01:38:11.736Z,54.71
2019-03-21T01:40:57.919Z,54.64
2019-03-21T01:43:24.095Z,55.24
2019-03-21T01:45:50.266Z,55.92
2019-03-21T01:48:16.489Z,56.01
2019-03-21T01:50:42.603Z,56.06
2019-03-21T01:53:08.802Z,56.01
2019-03-21T01:55:35.060Z,56.22
2019-03-21T01:58:01.275Z,56.20
2019-03-21T02:00:30.880Z,55.93
2019-03-21T02:02:57.477Z,55.86
2019-03-21T02:05:23.706Z,55.94
2019-03-21T02:07:49.975Z,55.60
2019-03-21T02:10:17.034Z,55.70
2019-03-21T02:12:43.228Z,55.26
2019-03-21T02:15:13.611Z,54.94
2019-03-21T02:17:39.915Z,55.49
2019-03-21T02:20:10.937Z,54.94
2019-03-21T02:22:37.050Z,54.82
2019-03-21T02:25:07.197Z,55.05
2019-03-21T02:27:33.335Z,54.33
2019-03-21T02:29:59.553Z,54.27
2019-03-21T02:32:26.001Z,54.37
2019-03-21T02:34:52.222Z,54.14
2019-03-21T02:37:18.481Z,54.67
2019-03-21T02:39:58.150Z,54.67
2019-03-21T02:42:12.870Z,54.43
2019-03-21T02:44:39.141Z,54.23
2019-03-21T02:47:05.413Z,54.18
2019-03-21T02:49:31.594Z,54.21
2019-03-21T02:51:57.798Z,54.39
2019-03-21T02:54:25.029Z,55.14
2019-03-21T02:56:51.845Z,55.02
2019-03-21T02:59:18.009Z,55.00
2019-03-21T03:01:44.264Z,54.93
2019-03-21T03:04:10.532Z,55.00
2019-03-21T03:06:36.897Z,55.29
2019-03-21T03:09:05.721Z,55.46
2019-03-21T03:11:32.033Z,55.88
2019-03-21T03:13:58.243Z,56.24
2019-03-21T03:16:24.432Z,56.88
2019-03-21T03:18:50.660Z,57.00
2019-03-21T03:21:16.877Z,57.70
2019-03-21T03:23:42.992Z,57.67
2019-03-21T03:26:09.247Z,58.33
2019-03-21T03:28:44.427Z,58.19
2019-03-21T03:31:10.657Z,58.33
2019-03-21T03:33:36.756Z,58.21
2019-03-21T03:36:03.164Z,58.28
2019-03-21T03:38:29.283Z,58.32
2019-03-21T03:40:59.319Z,58.21
2019-03-21T03:43:25.661Z,58.21
2019-03-21T03:45:51.906Z,58.03
2019-03-21T03:48:19.976Z,57.98
2019-03-21T03:50:46.356Z,58.10
2019-03-21T03:53:12.621Z,58.10
2019-03-21T03:55:39.032Z,57.89
2019-03-21T03:58:09.174Z,58.04
2019-03-21T04:00:35.833Z,57.97
2019-03-21T04:03:02.137Z,57.98
2019-03-21T04:05:28.829Z,57.98
2019-03-21T04:07:55.506Z,58.20
2019-03-21T04:10:25.784Z,58.48
2019-03-21T04:12:52.538Z,58.37
2019-03-21T04:15:19.524Z,58.82
2019-03-21T04:17:46.190Z,58.76
2019-03-21T04:20:15.795Z,58.93
2019-03-21T04:22:42.716Z,59.18
2019-03-21T04:25:12.607Z,59.30
2019-03-21T04:27:39.559Z,59.24
2019-03-21T04:30:09.910Z,59.55
2019-03-21T04:32:36.733Z,59.62
2019-03-21T04:35:09.431Z,59.64
2019-03-21T04:37:36.082Z,59.98
2019-03-21T04:40:06.302Z,59.33
2019-03-21T04:42:33.174Z,59.54
2019-03-21T04:44:59.969Z,59.44
2019-03-21T04:47:26.849Z,59.87
2019-03-21T04:49:53.653Z,59.78
2019-03-21T04:52:20.434Z,60.09
2019-03-21T04:54:47.159Z,59.98
2019-03-21T04:57:13.944Z,60.19
2019-03-21T04:59:40.698Z,59.46
2019-03-21T05:02:07.486Z,59.49
2019-03-21T05:04:34.235Z,59.38
2019-03-21T05:07:01.127Z,59.27
2019-03-21T05:09:27.802Z,59.34
2019-03-21T05:11:54.631Z,59.41
2019-03-21T05:14:21.320Z,59.54
2019-03-21T05:16:48.078Z,59.99
2019-03-21T05:19:14.865Z,60.44
2019-03-21T05:21:41.929Z,59.80
2019-03-21T05:24:09.576Z,59.85
2019-03-21T05:26:36.609Z,59.99
2019-03-21T05:29:02.896Z,59.80
2019-03-21T05:31:32.726Z,60.25
2019-03-21T05:33:58.843Z,60.23
2019-03-21T05:36:25.071Z,59.98
2019-03-21T05:38:51.219Z,59.89
2019-03-21T05:41:17.553Z,59.87
2019-03-21T05:43:53.489Z,60.01
2019-03-21T05:46:26.427Z,60.03
2019-03-21T05:48:48.760Z,60.14
2019-03-21T05:51:14.990Z,60.27
2019-03-21T05:53:41.092Z,60.28
2019-03-21T05:56:07.313Z,60.48
2019-03-21T05:58:33.468Z,60.45
2019-03-21T06:01:03.000Z,60.82
2019-03-21T06:03:32.712Z,60.97
2019-03-21T06:06:11.057Z,60.62
2019-03-21T06:08:38.823Z,61.14
2019-03-21T06:11:05.437Z,60.58
2019-03-21T06:13:31.805Z,60.46
2019-03-21T06:16:09.454Z,60.34
2019-03-21T06:19:06.832Z,60.12
2019-03-21T06:21:36.795Z,60.34
2019-03-21T06:24:30.849Z,60.46
2019-03-21T06:27:14.759Z,60.50
2019-03-21T06:29:41.138Z,60.17
2019-03-21T06:32:07.517Z,59.87
2019-03-21T06:34:33.644Z,59.86
2019-03-21T06:36:59.900Z,59.61
2019-03-21T06:39:26.208Z,59.55
2019-03-21T06:41:52.419Z,59.50
2019-03-21T06:44:18.575Z,59.51
2019-03-21T06:46:49.282Z,59.51
2019-03-21T06:49:12.831Z,59.63
2019-03-21T06:51:39.064Z,59.80
2019-03-21T06:54:05.164Z,59.45
2019-03-21T06:56:31.387Z,58.98
2019-03-21T06:58:57.554Z,58.69
2019-03-21T07:01:23.787Z,58.53
2019-03-21T07:03:49.911Z,58.38
2019-03-21T07:06:16.141Z,58.53
2019-03-21T07:08:42.270Z,59.22
2019-03-21T07:11:08.625Z,59.91
2019-03-21T07:13:34.805Z,60.09
2019-03-21T07:16:01.184Z,60.22
2019-03-21T07:18:27.463Z,59.66
2019-03-21T07:20:53.833Z,59.23
2019-03-21T07:23:20.251Z,58.51
2019-03-21T07:25:46.455Z,58.04
2019-03-21T07:28:12.611Z,57.20
2019-03-21T07:30:38.777Z,57.22
2019-03-21T07:33:04.943Z,57.76
2019-03-21T07:35:31.194Z,58.70
2019-03-21T07:37:57.354Z,59.00
2019-03-21T07:40:23.535Z,59.38
2019-03-21T07:42:49.704Z,59.57
2019-03-21T07:45:15.888Z,59.76
2019-03-21T07:47:42.258Z,58.75
2019-03-21T07:50:12.781Z,58.27
2019-03-21T07:52:39.000Z,57.28
2019-03-21T07:55:07.558Z,56.47
2019-03-21T07:57:33.768Z,56.16
2019-03-21T07:59:59.997Z,55.61
2019-03-21T08:02:26.340Z,55.32
2019-03-21T08:04:52.573Z,55.08
2019-03-21T08:07:18.677Z,54.50
2019-03-21T08:09:44.906Z,54.16
2019-03-21T08:12:11.011Z,54.65
2019-03-21T08:14:37.236Z,54.21
2019-03-21T08:17:03.349Z,54.01
2019-03-21T08:19:29.569Z,53.75
2019-03-21T08:21:55.854Z,53.52
2019-03-21T08:24:22.237Z,53.88
2019-03-21T08:26:48.532Z,53.60
2019-03-21T08:29:14.833Z,53.46
2019-03-21T08:31:40.956Z,53.44
2019-03-21T08:34:07.188Z,53.19
2019-03-21T08:36:33.322Z,53.34
2019-03-21T08:39:00.635Z,52.91
2019-03-21T08:41:26.806Z,53.05
2019-03-21T08:43:53.054Z,52.77
2019-03-21T08:46:19.310Z,52.10
2019-03-21T08:48:45.537Z,52.12
2019-03-21T08:51:11.698Z,52.26
2019-03-21T08:53:37.984Z,52.35
2019-03-21T08:56:04.366Z,51.97
2019-03-21T08:58:30.652Z,51.15
2019-03-21T09:00:56.907Z,50.94
2019-03-21T09:03:23.218Z,50.89
2019-03-21T09:05:49.505Z,50.49
2019-03-21T09:08:15.789Z,50.11
2019-03-21T09:10:42.176Z,49.89
2019-03-21T09:13:09.465Z,49.25
2019-03-21T09:15:36.738Z,49.45
2019-03-21T09:18:02.935Z,48.59
2019-03-21T09:20:29.096Z,48.24
2019-03-21T09:22:55.321Z,48.03
2019-03-21T09:25:21.424Z,47.77
2019-03-21T09:27:47.631Z,47.35
2019-03-21T09:30:14.011Z,46.97
2019-03-21T09:32:40.648Z,46.80
2019-03-21T09:35:08.071Z,46.51
2019-03-21T09:37:34.230Z,46.18
2019-03-21T09:40:00.503Z,46.19
2019-03-21T09:42:26.835Z,46.03
2019-03-21T09:44:53.064Z,45.53
2019-03-21T09:47:19.166Z,44.53
2019-03-21T09:49:45.426Z,44.42
2019-03-21T09:52:11.532Z,44.82
2019-03-21T09:54:37.757Z,44.44
2019-03-21T09:57:04.005Z,43.98
2019-03-21T09:59:30.369Z,43.25
2019-03-21T10:01:56.487Z,43.27
2019-03-21T10:04:22.787Z,43.55
2019-03-21T10:06:49.032Z,43.36
2019-03-21T10:09:15.273Z,42.67
2019-03-21T10:11:41.538Z,42.44
2019-03-21T10:14:07.836Z,41.99
2019-03-21T10:16:34.249Z,41.58
2019-03-21T10:19:00.359Z,40.88
2019-03-21T10:21:26.887Z,40.30
2019-03-21T10:23:53.104Z,39.45
2019-03-21T10:26:19.537Z,39.65
2019-03-21T10:28:45.663Z,38.98
2019-03-21T10:31:11.874Z,38.60
2019-03-21T10:33:38.050Z,38.71
2019-03-21T10:36:04.283Z,37.58
2019-03-21T10:38:30.488Z,36.72
2019-03-21T10:40:56.897Z,36.44
2019-03-21T10:43:23.135Z,36.21
2019-03-21T10:45:49.368Z,35.51
2019-03-21T10:48:15.568Z,34.15
2019-03-21T10:50:41.661Z,33.65
2019-03-21T10:53:08.573Z,33.03
2019-03-21T10:55:35.015Z,31.88
2019-03-21T10:58:01.454Z,31.19
2019-03-21T11:00:27.697Z,29.47
2019-03-21T11:02:55.104Z,28.23
2019-03-21T11:05:23.191Z,29.25
2019-03-21T11:07:49.456Z,28.16
2019-03-21T11:10:15.766Z,27.91
2019-03-21T11:12:42.016Z,26.76
2019-03-21T11:15:08.678Z,26.45
2019-03-21T11:17:35.218Z,26.17
2019-03-21T11:20:01.591Z,25.03
2019-03-21T11:22:27.883Z,25.19
2019-03-21T11:24:54.262Z,23.47
2019-03-21T11:27:20.553Z,24.15
2019-03-21T11:29:46.788Z,23.79
2019-03-21T11:32:12.916Z,23.79
2019-03-21T11:34:39.139Z,23.73
2019-03-21T11:37:05.239Z,23.41
2019-03-21T11:39:31.468Z,23.33
2019-03-21T11:41:57.675Z,23.18
2019-03-21T11:44:24.029Z,22.95
2019-03-21T11:46:50.202Z,22.15
2019-03-21T11:49:16.562Z,22.39
2019-03-21T11:51:42.727Z,21.56
2019-03-21T11:54:08.981Z,22.20
2019-03-21T11:56:35.101Z,22.11
2019-03-21T11:59:01.338Z,21.32
2019-03-21T12:01:27.454Z,21.01
2019-03-21T12:03:53.692Z,20.44
2019-03-21T12:06:19.816Z,20.40
2019-03-21T12:08:46.048Z,20.20
2019-03-21T12:11:12.173Z,19.67
2019-03-21T12:13:38.386Z,19.55
2019-03-21T12:16:05.658Z,19.72
2019-03-21T12:18:31.916Z,19.50
2019-03-21T12:20:58.125Z,20.06
2019-03-21T12:23:24.387Z,20.21
2019-03-21T12:25:50.569Z,20.03
2019-03-21T12:28:16.834Z,19.55
2019-03-21T12:30:43.124Z,19.38
2019-03-21T12:33:09.488Z,18.39
2019-03-21T12:35:35.751Z,18.30
2019-03-21T12:38:04.225Z,18.15
2019-03-21T12:40:30.447Z,18.24
2019-03-21T12:42:56.574Z,18.69
2019-03-21T12:45:22.817Z,18.75
2019-03-21T12:47:48.986Z,18.67
2019-03-21T12:50:15.132Z,18.12
2019-03-21T12:52:41.813Z,17.87
2019-03-21T12:55:08.196Z,17.74
2019-03-21T12:57:34.528Z,18.02
2019-03-21T13:00:00.789Z,17.77
2019-03-21T13:02:32.275Z,17.71
2019-03-21T13:04:55.371Z,17.38
2019-03-21T13:07:21.958Z,17.63
2019-03-21T13:09:48.348Z,17.63
2019-03-21T13:12:14.571Z,18.01
2019-03-21T13:14:40.742Z,17.75
2019-03-21T13:17:07.028Z,17.88
2019-03-21T13:19:33.326Z,17.63
2019-03-21T13:21:59.503Z,16.59
2019-03-21T13:24:25.873Z,16.61
2019-03-21T13:26:52.320Z,16.90
2019-03-21T13:29:18.892Z,16.53
2019-03-21T13:31:45.112Z,17.02
2019-03-21T13:34:11.221Z,16.77
2019-03-21T13:36:37.432Z,16.18
2019-03-21T13:39:05.534Z,16.41
2019-03-21T13:41:31.851Z,16.13
2019-03-21T13:43:58.062Z,16.42
2019-03-21T13:46:24.290Z,16.29
2019-03-21T13:48:51.385Z,15.96
2019-03-21T13:51:18.629Z,16.92
2019-03-21T13:53:44.791Z,16.67
2019-03-21T13:56:11.056Z,16.51
2019-03-21T13:58:37.194Z,16.84
2019-03-21T14:01:03.534Z,16.87
2019-03-21T14:03:29.686Z,16.65
2019-03-21T14:05:55.868Z,17.62
2019-03-21T14:08:22.044Z,17.62
2019-03-21T14:10:48.205Z,18.83
2019-03-21T14:13:14.530Z,19.41
2019-03-21T14:15:40.824Z,19.32
2019-03-21T14:18:07.014Z,19.15
2019-03-21T14:20:34.255Z,19.12
2019-03-21T14:23:00.469Z,19.27
2019-03-21T14:25:27.021Z,19.77
2019-03-21T14:27:53.250Z,20.66
2019-03-21T14:30:19.372Z,21.59
2019-03-21T14:32:45.651Z,21.92
2019-03-21T14:35:12.252Z,21.82
2019-03-21T14:37:38.502Z,21.67
2019-03-21T14:40:07.275Z,21.87
2019-03-21T14:42:33.609Z,21.95
2019-03-21T14:44:59.888Z,22.20
2019-03-21T14:47:35.848Z,22.56
2019-03-21T14:49:54.385Z,22.59
2019-03-21T14:52:20.512Z,22.42
2019-03-21T14:54:46.772Z,21.94
2019-03-21T14:57:12.869Z,22.54
2019-03-21T14:59:39.200Z,23.01
2019-03-21T15:02:05.484Z,22.56
2019-03-21T15:04:32.241Z,22.26
2019-03-21T15:06:58.494Z,22.85
2019-03-21T15:09:24.832Z,23.46
2019-03-21T15:11:51.065Z,24.03
2019-03-21T15:14:18.177Z,24.54
2019-03-21T15:16:44.699Z,25.10
2019-03-21T15:19:10.919Z,25.89
2019-03-21T15:21:37.300Z,26.39
2019-03-21T15:24:03.587Z,26.54
2019-03-21T15:26:29.745Z,26.58
2019-03-21T15:28:55.986Z,26.82
2019-03-21T15:31:22.708Z,26.92
2019-03-21T15:33:48.975Z,27.34
2019-03-21T15:36:15.163Z,27.84
2019-03-21T15:38:41.390Z,28.71
2019-03-21T15:41:07.531Z,29.38
2019-03-21T15:43:33.745Z,29.88
2019-03-21T15:45:59.958Z,30.30
2019-03-21T15:48:26.384Z,30.73
2019-03-21T15:51:03.887Z,31.25
2019-03-21T15:53:21.140Z,31.96
2019-03-21T15:55:48.069Z,32.31
2019-03-21T15:58:15.021Z,33.00
2019-03-21T16:00:42.477Z,33.07
2019-03-21T16:03:10.683Z,33.64
2019-03-21T16:05:37.264Z,34.17
2019-03-21T16:08:04.636Z,34.48
2019-03-21T16:10:30.884Z,34.98
2019-03-21T16:12:57.613Z,35.22
2019-03-21T16:15:24.520Z,35.81
2019-03-21T16:17:51.216Z,35.93
2019-03-21T16:20:18.075Z,36.40
2019-03-21T16:22:44.807Z,36.70
2019-03-21T16:25:11.773Z,37.14
2019-03-21T16:27:38.145Z,37.30
2019-03-21T16:30:10.317Z,37.74
2019-03-21T16:32:36.572Z,38.05
2019-03-21T16:35:05.145Z,38.38
2019-03-21T16:37:31.334Z,38.61
2019-03-21T16:39:57.676Z,38.88
2019-03-21T16:42:23.998Z,39.15
2019-03-21T16:44:50.278Z,39.36
2019-03-21T16:47:16.532Z,39.58
2019-03-21T16:49:42.794Z,39.89
2019-03-21T16:52:09.146Z,40.06
2019-03-21T16:54:35.566Z,40.23
2019-03-21T16:57:01.851Z,40.45
2019-03-21T16:59:29.344Z,40.75
2019-03-21T17:01:55.702Z,41.12
2019-03-21T17:04:21.804Z,41.50
2019-03-21T17:06:48.035Z,41.84
2019-03-21T17:09:14.216Z,42.27
2019-03-21T17:11:40.498Z,42.70
2019-03-21T17:14:07.876Z,43.17
2019-03-21T17:16:34.129Z,43.47
2019-03-21T17:19:00.271Z,43.79
2019-03-21T17:21:26.712Z,44.20
2019-03-21T17:23:52.886Z,44.57
2019-03-21T17:26:19.093Z,44.84
2019-03-21T17:28:45.319Z,45.75
2019-03-21T17:31:11.750Z,46.47
2019-03-21T17:33:37.982Z,47.22
2019-03-21T17:36:04.194Z,47.98
2019-03-21T17:38:30.419Z,48.51
2019-03-21T17:40:56.533Z,48.86
2019-03-21T17:43:22.737Z,49.28
2019-03-21T17:45:48.889Z,49.56
2019-03-21T17:48:15.131Z,49.87
2019-03-21T17:50:41.307Z,50.12
2019-03-21T17:53:07.538Z,50.66
2019-03-21T17:55:33.653Z,51.09
2019-03-21T17:58:00.071Z,51.24
2019-03-21T18:00:28.307Z,51.57
2019-03-21T18:02:54.929Z,52.08
2019-03-21T18:05:21.137Z,52.42
2019-03-21T18:07:48.454Z,53.00
2019-03-21T18:10:29.759Z,53.48
2019-03-21T18:12:56.409Z,53.95
2019-03-21T18:15:23.454Z,54.44
2019-03-21T18:17:49.637Z,54.87
2019-03-21T18:20:15.817Z,54.93
2019-03-21T18:22:42.059Z,55.21
2019-03-21T18:25:08.461Z,55.76
2019-03-21T18:27:34.641Z,56.43
2019-03-21T18:30:00.775Z,56.80
2019-03-21T18:32:27.154Z,57.24
2019-03-21T18:34:53.305Z,57.60
2019-03-21T18:37:19.498Z,57.70
2019-03-21T18:39:45.664Z,57.84
2019-03-21T18:42:11.871Z,58.27
2019-03-21T18:44:38.156Z,58.45
2019-03-21T18:47:06.272Z,58.53
2019-03-21T18:49:32.425Z,58.90
2019-03-21T18:51:58.677Z,59.17
2019-03-21T18:54:26.448Z,59.28
2019-03-21T18:56:52.777Z,59.32
2019-03-21T18:59:19.738Z,59.69
2019-03-21T19:01:57.943Z,60.02
2019-03-21T19:04:14.836Z,60.28
2019-03-21T19:06:41.303Z,60.28
2019-03-21T19:09:07.589Z,60.18
2019-03-21T19:11:33.860Z,60.36
2019-03-21T19:14:00.048Z,60.22
2019-03-21T19:16:26.409Z,60.47
2019-03-21T19:18:52.588Z,61.02
2019-03-21T19:21:18.758Z,60.97
2019-03-21T19:23:45.082Z,61.27
2019-03-21T19:26:11.198Z,60.99
2019-03-21T19:28:37.433Z,60.84
2019-03-21T19:31:03.741Z,60.87
2019-03-21T19:33:29.988Z,61.16
2019-03-21T19:35:56.104Z,61.55
2019-03-21T19:38:23.846Z,61.53
2019-03-21T19:40:50.189Z,61.69
2019-03-21T19:43:16.404Z,61.95
2019-03-21T19:45:42.517Z,62.47
2019-03-21T19:48:08.867Z,62.33
2019-03-21T19:50:34.976Z,62.24
2019-03-21T19:53:01.201Z,62.26
2019-03-21T19:55:31.123Z,62.24
2019-03-21T19:57:55.468Z,62.24
2019-03-21T20:00:22.471Z,62.04
2019-03-21T20:02:49.151Z,61.87
2019-03-21T20:05:15.805Z,61.86
2019-03-21T20:07:42.207Z,62.08
2019-03-21T20:10:10.978Z,62.26
2019-03-21T20:12:37.292Z,62.57
2019-03-21T20:15:06.520Z,62.50
2019-03-21T20:17:32.838Z,62.59
2019-03-21T20:19:59.005Z,62.65
2019-03-21T20:22:25.339Z,62.71
2019-03-21T20:24:51.551Z,62.61
2019-03-21T20:27:17.870Z,62.71
2019-03-21T20:29:44.015Z,63.02
2019-03-21T20:32:20.093Z,63.20
2019-03-21T20:34:39.589Z,63.44
2019-03-21T20:37:05.827Z,63.43
2019-03-21T20:39:31.948Z,63.47
2019-03-21T20:41:58.175Z,63.39
2019-03-21T20:44:24.302Z,63.50
2019-03-21T20:46:50.621Z,63.65
2019-03-21T20:49:16.797Z,63.52
2019-03-21T20:51:43.042Z,63.42
2019-03-21T20:54:09.260Z,63.54
2019-03-21T20:56:35.482Z,63.75
2019-03-21T20:59:01.627Z,63.83
2019-03-21T21:01:28.091Z,64.02
2019-03-21T21:03:54.270Z,64.42
2019-03-21T21:06:20.692Z,64.18
2019-03-21T21:08:47.116Z,64.36
2019-03-21T21:11:13.321Z,64.41
2019-03-21T21:13:39.474Z,64.66
2019-03-21T21:16:05.938Z,64.54
2019-03-21T21:18:32.240Z,64.40
2019-03-21T21:20:59.690Z,64.46
2019-03-21T21:23:25.943Z,64.56
2019-03-21T21:25:52.519Z,64.77
2019-03-21T21:28:18.765Z,64.91
2019-03-21T21:30:44.990Z,64.94
2019-03-21T21:33:11.333Z,64.91
2019-03-21T21:35:37.652Z,65.15
2019-03-21T21:38:04.633Z,65.55
2019-03-21T21:40:33.225Z,65.48
2019-03-21T21:43:01.388Z,65.38
2019-03-21T21:45:27.646Z,65.47
2019-03-21T21:47:53.893Z,65.76
2019-03-21T21:50:20.131Z,65.94
2019-03-21T21:52:46.369Z,66.28
2019-03-21T21:55:13.144Z,66.12
2019-03-21T21:57:39.457Z,65.92
2019-03-21T22:00:09.153Z,65.88
2019-03-21T22:02:35.355Z,65.91
2019-03-21T22:05:05.038Z,65.92
2019-03-21T22:07:31.422Z,66.21
2019-03-21T22:09:57.656Z,66.02
2019-03-21T22:12:23.829Z,66.03
2019-03-21T22:14:50.111Z,66.14
2019-03-21T22:17:16.452Z,66.63
2019-03-21T22:19:42.573Z,67.51
2019-03-21T22:22:08.782Z,67.40
2019-03-21T22:24:34.884Z,67.11
2019-03-21T22:27:01.101Z,66.88
2019-03-21T22:29:27.383Z,66.82
2019-03-21T22:31:53.608Z,66.89
2019-03-21T22:34:19.772Z,67.18
2019-03-21T22:36:49.498Z,67.72
2019-03-21T22:39:14.145Z,67.88
2019-03-21T22:41:40.465Z,68.22
2019-03-21T22:44:06.574Z,68.15
2019-03-21T22:46:32.802Z,68.14
2019-03-21T22:48:59.055Z,68.31
2019-03-21T22:51:25.342Z,68.28
2019-03-21T22:53:51.568Z,68.17
2019-03-21T22:56:17.697Z,67.97
2019-03-21T22:58:43.946Z,68.27
2019-03-21T23:01:10.102Z,68.18
2019-03-21T23:03:36.373Z,68.25
2019-03-21T23:06:02.719Z,68.18
2019-03-21T23:08:28.930Z,68.18
2019-03-21T23:10:55.163Z,68.18
2019-03-21T23:13:21.364Z,68.15
2019-03-21T23:15:47.639Z,68.17
2019-03-21T23:18:13.904Z,68.20
2019-03-21T23:20:40.004Z,68.30
2019-03-21T23:23:06.236Z,68.51
2019-03-21T23:25:32.429Z,68.57
2019-03-21T23:27:58.924Z,68.49
2019-03-21T23:30:25.298Z,68.43
2019-03-21T23:32:51.619Z,68.54
2019-03-21T23:35:17.759Z,68.49
2019-03-21T23:37:43.993Z,68.43
2019-03-21T23:40:13.415Z,68.78
2019-03-21T23:42:39.580Z,68.58
2019-03-21T23:45:07.343Z,69.04
2019-03-21T23:47:33.671Z,69.24
2019-03-21T23:50:01.238Z,69.35
2019-03-21T23:52:27.643Z,69.37
2019-03-21T23:54:53.744Z,69.29
2019-03-21T23:57:19.978Z,69.26
2019-03-21T23:59:46.163Z,69.24
